Airfield :
LOGIN :

Register | Disclaimer

   EN    FR    IT 

 










Legend :    VFR   Marginal VFR   IFR   Intensive IFR   Very Intensive IFR
Visi :
Ceiling :
>= 8 km
>= 3000ft
5 to 8 km
1000 to 3000 ft
1500m to 5 km
500 to 1000 ft
800 to 1500m
200 to 500 ft
< 800m
< 200 ft
Symbols :   Thunderstorms  Fog  Heavy snow  Heavy precipitations  Wind > 20 kt
SIGMETs :     Misc.  Thunderstorms  Icing  Turbulence  Mountain Waves  Volcanic Ashes







- Airport Elevation : 896 ft
- IATA code : INZ


DAUI - in Salah

CURRENT METAR :
  • 191400Z 21020KT 8000 DRSA NSC 38/M00 Q1005

EXPIRED METARs :
  • 191300Z 23016KT 8000 NSC 37/M01 Q1006
  • 191200Z 13022KT 8000 NSC 37/03 Q1007

TAF TAF DAUI
Valid from the 19 at 12:00 until the 20 at 12:00 UTC


191100Z 1912/2012 22018KT 8000 NSC
PROB40
TEMPO 1912/1918 22018G28KT 3000 DRSA
PROB30
TEMPO 1912/1918 22020G30KT 1000 BLSA
BECMG 1920/1923 VRB02KT
No reported NOTAMs for that airfield.



MET'MAP, your aeronautical weather chart ! - Copyright ORBIFLY December 2007 - Disclaimer

ORBIFLY MET'MAP TEAM :

Programming & Development : Alexandra Zaïnal
Concept & Development : Baudouin d'Aumeries
Co-Development & Prog : Marc-Olivier Méhu
Technical & hardware support : Manuel Goepfert

Contact : metmap@orbifly.com




SOURCES & CREDITS :

   NOAA